Time;durP1;ratioP1;P1;durP2;ratioP2;P2;SDS_P1;SDS_P2;PMS_P1;PMS_P2;Temp;Humidity;BMP_temperature;BMP_pressure;BME280_temperature;BME280_humidity;BME280_pressure;Samples;Min_cycle;Max_cycle;Signal;HPM_P1;HPM_P2
2021/08/21 04:49:18;;;;;;;20.37;18.93;;;15.60;99.90;;;;;;5748512;23;20490;-71
2021/08/21 04:51:45;;;;;;;22.30;20.73;;;15.70;99.90;;;;;;4995324;28;20457;-69
2021/08/21 04:54:11;;;;;;;21.77;20.13;;;15.80;99.90;;;;;;5001810;28;20426;-69
2021/08/21 04:56:38;;;;;;;20.83;19.43;;;15.90;99.90;;;;;;4999321;28;20474;-68
2021/08/21 04:59:05;;;;;;;20.10;18.60;;;15.90;99.90;;;;;;5001377;28;20454;-69
2021/08/21 05:01:31;;;;;;;20.70;19.50;;;16.00;99.90;;;;;;5001383;28;20442;-69
2021/08/21 05:03:58;;;;;;;22.83;21.27;;;16.20;99.90;;;;;;5001960;28;20458;-69
2021/08/21 05:06:26;;;;;;;23.13;21.13;;;16.30;99.90;;;;;;5000309;28;20466;-69
2021/08/21 05:08:53;;;;;;;20.63;19.30;;;16.40;99.90;;;;;;5001143;28;20450;-70
2021/08/21 05:11:19;;;;;;;21.27;20.00;;;16.40;99.90;;;;;;5002012;28;20451;-69
2021/08/21 05:13:46;;;;;;;19.93;18.53;;;16.40;99.90;;;;;;4997577;28;20447;-69
2021/08/21 05:16:12;;;;;;;20.57;19.37;;;16.40;99.90;;;;;;5001052;28;20438;-69
2021/08/21 05:18:44;;;;;;;22.10;19.90;;;16.40;99.90;;;;;;5001899;28;20450;-69
2021/08/21 05:21:13;;;;;;;21.27;19.10;;;16.60;99.90;;;;;;4998959;28;20446;-70
2021/08/21 05:23:42;;;;;;;18.70;17.50;;;16.90;99.90;;;;;;4999895;28;20986;-70
2021/08/21 05:26:09;;;;;;;19.83;18.10;;;17.20;99.90;;;;;;4998010;28;20902;-69
2021/08/21 05:28:37;;;;;;;19.43;18.17;;;17.50;99.90;;;;;;4999943;28;20446;-70
2021/08/21 05:31:04;;;;;;;19.80;18.50;;;17.70;99.90;;;;;;5001600;28;20580;-70
2021/08/21 05:33:31;;;;;;;19.10;17.70;;;17.80;99.90;;;;;;5000215;28;20447;-71
2021/08/21 05:35:57;;;;;;;17.90;16.60;;;18.00;99.90;;;;;;5000250;28;20438;-70
2021/08/21 05:38:24;;;;;;;18.40;17.40;;;18.20;99.90;;;;;;5001937;28;20446;-70
2021/08/21 05:40:52;;;;;;;20.80;19.20;;;18.30;99.90;;;;;;5000138;28;20984;-69
2021/08/21 05:43:19;;;;;;;17.97;16.93;;;18.30;99.90;;;;;;4999650;28;21041;-69
2021/08/21 05:45:45;;;;;;;20.07;18.87;;;18.30;99.90;;;;;;5011264;28;20485;-70
2021/08/21 05:48:12;;;;;;;19.00;17.90;;;18.50;99.90;;;;;;5011341;28;20481;-70
2021/08/21 05:50:39;;;;;;;20.50;18.77;;;18.60;99.90;;;;;;5011436;28;20478;-74
2021/08/21 05:53:57;;;;;;;19.93;18.40;;;18.70;99.90;;;;;;5011386;28;20450;-70
2021/08/21 05:56:26;;;;;;;17.77;16.57;;;18.70;99.90;;;;;;4970338;28;20447;-71
2021/08/21 05:58:53;;;;;;;20.43;18.60;;;18.90;99.90;;;;;;4970174;28;20455;-71
2021/08/21 06:01:19;;;;;;;20.13;18.83;;;18.90;99.90;;;;;;4988122;28;20454;-71
2021/08/21 06:03:46;;;;;;;18.90;17.60;;;18.80;99.90;;;;;;5009557;28;20465;-71
2021/08/21 06:06:14;;;;;;;18.37;17.23;;;18.70;99.90;;;;;;5011744;28;20496;-71
2021/08/21 06:08:41;;;;;;;18.63;17.13;;;18.90;99.90;;;;;;5011859;28;20818;-71
2021/08/21 06:11:07;;;;;;;18.60;17.40;;;19.10;99.90;;;;;;5011686;28;20465;-71
2021/08/21 06:13:35;;;;;;;19.07;17.77;;;19.40;99.90;;;;;;5011638;28;20450;-72
2021/08/21 06:16:02;;;;;;;17.80;16.53;;;19.70;99.90;;;;;;5011528;28;20446;-71
2021/08/21 06:18:29;;;;;;;18.60;17.30;;;19.50;99.90;;;;;;5011372;28;20465;-71
2021/08/21 06:20:56;;;;;;;17.20;16.10;;;19.40;99.90;;;;;;5011636;28;20465;-71
2021/08/21 06:23:23;;;;;;;18.67;17.57;;;19.40;99.90;;;;;;5011377;28;20964;-71
2021/08/21 06:25:49;;;;;;;19.07;17.90;;;19.30;99.90;;;;;;5011354;28;20489;-71
2021/08/21 06:28:16;;;;;;;18.33;17.20;;;19.40;99.90;;;;;;5011250;28;21058;-71
2021/08/21 06:30:44;;;;;;;17.33;16.43;;;19.50;99.90;;;;;;5011383;28;20454;-71
2021/08/21 06:33:11;;;;;;;19.93;18.03;;;19.50;99.90;;;;;;5011342;28;20457;-72
2021/08/21 06:35:37;;;;;;;18.73;17.50;;;19.40;99.90;;;;;;5011200;28;20453;-71
2021/08/21 06:38:04;;;;;;;18.77;17.43;;;19.50;99.90;;;;;;5011248;28;20461;-71
2021/08/21 06:40:31;;;;;;;20.10;18.70;;;19.40;99.90;;;;;;5011208;28;20453;-71
2021/08/21 06:42:58;;;;;;;20.37;19.10;;;19.50;99.90;;;;;;5011265;28;20957;-71
2021/08/21 06:45:24;;;;;;;19.63;18.33;;;19.60;99.90;;;;;;5011268;28;21021;-71
2021/08/21 06:47:55;;;;;;;19.40;18.20;;;19.80;99.90;;;;;;5011061;28;20868;-72
2021/08/21 06:50:22;;;;;;;18.27;17.27;;;20.00;99.90;;;;;;5011216;28;20481;-72
2021/08/21 06:52:49;;;;;;;20.00;18.33;;;20.40;99.90;;;;;;5011192;28;20609;-72
2021/08/21 06:55:16;;;;;;;18.87;17.57;;;20.30;99.90;;;;;;5011167;28;20556;-72
2021/08/21 06:57:42;;;;;;;18.33;17.17;;;20.40;99.90;;;;;;5011196;28;20453;-71
2021/08/21 07:00:10;;;;;;;18.20;17.30;;;20.50;99.90;;;;;;5011242;28;20450;-71
2021/08/21 07:02:37;;;;;;;18.53;17.10;;;20.40;99.90;;;;;;5011274;28;20454;-71
2021/08/21 07:05:06;;;;;;;17.07;16.07;;;20.20;99.90;;;;;;5011010;28;20867;-71
2021/08/21 07:07:32;;;;;;;18.17;17.07;;;20.60;99.90;;;;;;5011048;28;20450;-71
2021/08/21 07:09:59;;;;;;;18.87;17.77;;;21.30;99.90;;;;;;5011080;28;20461;-71
2021/08/21 07:12:26;;;;;;;17.27;16.17;;;22.30;99.90;;;;;;5011151;28;20458;-71
2021/08/21 07:14:52;;;;;;;17.10;16.00;;;22.50;99.90;;;;;;5011116;28;20679;-72
2021/08/21 07:17:19;;;;;;;17.20;16.10;;;22.70;99.90;;;;;;5011046;28;20462;-72
2021/08/21 07:19:46;;;;;;;16.87;15.97;;;23.40;99.90;;;;;;5010815;28;20457;-72
2021/08/21 07:22:14;;;;;;;17.13;15.63;;;23.70;99.90;;;;;;5010950;28;20450;-71
2021/08/21 07:24:40;;;;;;;16.63;15.63;;;23.70;99.90;;;;;;5010986;28;20480;-71
2021/08/21 07:27:07;;;;;;;17.03;15.93;;;23.60;99.90;;;;;;5010815;28;20482;-72
2021/08/21 07:29:34;;;;;;;15.77;15.00;;;24.00;99.90;;;;;;5010986;28;20442;-71
2021/08/21 07:32:01;;;;;;;16.03;15.13;;;24.30;99.90;;;;;;5010730;28;20454;-72
2021/08/21 07:34:27;;;;;;;17.77;16.50;;;24.50;99.90;;;;;;5010812;28;20529;-72
2021/08/21 07:36:54;;;;;;;15.07;14.17;;;24.90;99.90;;;;;;5010837;28;20966;-72
2021/08/21 07:39:22;;;;;;;18.07;16.73;;;25.20;99.90;;;;;;5010664;28;20450;-72
2021/08/21 07:41:49;;;;;;;17.67;16.57;;;25.60;99.90;;;;;;5008932;28;21120;-72
2021/08/21 07:44:16;;;;;;;18.07;17.07;;;26.20;99.00;;;;;;5010593;28;20472;-72
2021/08/21 07:46:42;;;;;;;17.10;16.20;;;26.80;97.40;;;;;;5010635;28;20492;-72
2021/08/21 07:49:09;;;;;;;15.70;14.90;;;27.00;96.50;;;;;;5010483;28;20486;-72
2021/08/21 07:51:37;;;;;;;16.40;15.50;;;26.60;96.80;;;;;;5012268;28;20457;-72
2021/08/21 07:54:03;;;;;;;16.50;15.40;;;26.70;96.20;;;;;;5014053;28;21062;-72
2021/08/21 07:56:31;;;;;;;15.43;14.60;;;26.40;96.30;;;;;;5014049;28;20457;-72
2021/08/21 07:58:58;;;;;;;15.50;14.50;;;26.50;96.40;;;;;;5014134;28;20452;-72
2021/08/21 08:01:25;;;;;;;15.10;14.37;;;26.70;95.80;;;;;;5014037;28;20457;-72
2021/08/21 08:03:52;;;;;;;15.03;14.33;;;27.10;95.10;;;;;;5013948;28;21002;-72
2021/08/21 08:06:18;;;;;;;15.53;14.47;;;27.20;94.40;;;;;;5013854;28;20842;-72
2021/08/21 08:08:45;;;;;;;14.83;14.10;;;26.90;94.60;;;;;;5013855;28;20460;-72
2021/08/21 08:11:11;;;;;;;15.40;14.40;;;26.50;95.00;;;;;;5014052;28;20454;-72
2021/08/21 08:13:40;;;;;;;15.30;14.30;;;26.70;94.00;;;;;;5013781;28;20453;-72
2021/08/21 08:16:07;;;;;;;15.63;14.90;;;26.70;94.60;;;;;;5013886;28;20500;-72
2021/08/21 08:18:34;;;;;;;17.47;16.60;;;26.90;94.30;;;;;;5013507;28;20496;-72
2021/08/21 08:21:00;;;;;;;16.63;15.40;;;27.70;93.70;;;;;;5013647;28;20454;-72
2021/08/21 08:23:27;;;;;;;16.17;15.27;;;28.20;92.40;;;;;;5013691;28;20453;-72
2021/08/21 08:25:54;;;;;;;14.93;14.23;;;28.50;92.20;;;;;;5013611;28;21011;-72
2021/08/21 08:28:20;;;;;;;14.93;14.27;;;29.20;91.20;;;;;;5013480;28;20446;-73
2021/08/21 08:30:48;;;;;;;16.70;15.90;;;29.10;90.90;;;;;;5013487;28;20459;-72
2021/08/21 08:33:15;;;;;;;15.53;14.40;;;29.20;90.40;;;;;;5013367;28;20465;-73
2021/08/21 08:35:42;;;;;;;15.50;14.80;;;29.30;90.50;;;;;;5013451;28;20500;-72
2021/08/21 08:38:08;;;;;;;15.87;15.07;;;28.80;90.80;;;;;;5013349;28;20461;-72
2021/08/21 08:40:35;;;;;;;15.70;15.00;;;28.90;90.40;;;;;;5013312;28;20450;-71
2021/08/21 08:43:04;;;;;;;16.17;15.37;;;28.70;90.80;;;;;;5013252;28;20454;-74
2021/08/21 08:45:31;;;;;;;16.63;15.83;;;28.60;90.70;;;;;;5013276;28;20863;-72
2021/08/21 08:48:00;;;;;;;16.20;15.40;;;29.20;90.60;;;;;;5013178;28;20466;-74
2021/08/21 08:50:28;;;;;;;15.77;14.90;;;29.90;87.90;;;;;;5013028;28;20588;-74
2021/08/21 08:52:55;;;;;;;16.50;15.30;;;29.20;90.30;;;;;;5013215;28;20508;-74
2021/08/21 08:55:22;;;;;;;15.23;14.43;;;29.10;90.10;;;;;;5013202;28;20454;-74
2021/08/21 08:57:50;;;;;;;15.10;14.23;;;29.00;90.10;;;;;;5013128;28;20462;-74
2021/08/21 09:00:19;;;;;;;17.60;16.43;;;29.40;90.30;;;;;;5012791;28;20461;-72
2021/08/21 09:02:48;;;;;;;17.40;16.50;;;29.50;89.10;;;;;;5009712;28;20457;-72
2021/08/21 09:05:18;;;;;;;17.37;16.37;;;29.60;89.50;;;;;;5012222;28;20450;-73
2021/08/21 09:07:48;;;;;;;15.57;14.87;;;29.60;89.30;;;;;;5012185;28;20481;-73
2021/08/21 09:10:18;;;;;;;16.10;15.30;;;29.80;89.40;;;;;;5012283;28;20460;-72
2021/08/21 09:12:45;;;;;;;15.90;15.20;;;30.10;88.00;;;;;;5012206;28;20477;-72
2021/08/21 09:15:23;;;;;;;16.47;15.53;;;30.80;86.90;;;;;;5012206;28;20458;-72
2021/08/21 09:18:01;;;;;;;17.20;16.30;;;31.00;84.20;;;;;;5011833;28;20477;-72
2021/08/21 09:20:29;;;;;;;17.00;16.30;;;30.80;85.70;;;;;;5011953;28;20544;-73
2021/08/21 09:23:16;;;;;;;16.53;15.63;;;30.90;85.70;;;;;;5012009;28;20462;-73
2021/08/21 09:25:43;;;;;;;16.30;15.50;;;31.20;85.10;;;;;;5012095;28;20450;-73
2021/08/21 09:28:15;;;;;;;17.23;16.00;;;31.50;83.70;;;;;;5012245;28;20458;-73
2021/08/21 09:30:42;;;;;;;15.97;15.17;;;31.20;83.80;;;;;;5012243;28;20859;-72
2021/08/21 09:33:08;;;;;;;16.57;15.77;;;30.90;85.30;;;;;;5010016;28;20461;-73
2021/08/21 09:35:37;;;;;;;17.87;16.60;;;31.20;84.40;;;;;;5011840;28;20480;-73
2021/08/21 09:38:04;;;;;;;17.87;16.87;;;31.70;83.20;;;;;;5011618;28;20453;-72
2021/08/21 09:40:33;;;;;;;18.00;17.10;;;31.00;84.00;;;;;;5011622;28;20473;-72
2021/08/21 09:43:01;;;;;;;17.20;16.27;;;30.80;84.80;;;;;;5011540;28;20865;-73
2021/08/21 09:45:28;;;;;;;17.53;16.27;;;31.70;82.90;;;;;;5011571;28;20966;-72
2021/08/21 09:47:59;;;;;;;18.30;17.30;;;31.60;82.00;;;;;;5011515;28;20501;-72
2021/08/21 09:50:26;;;;;;;17.83;16.77;;;31.90;81.90;;;;;;5011606;28;20576;-73
2021/08/21 09:53:01;;;;;;;18.77;17.80;;;31.40;82.20;;;;;;5009901;28;20490;-72
2021/08/21 09:55:29;;;;;;;16.87;16.07;;;31.40;84.00;;;;;;5011498;28;20453;-72
2021/08/21 09:58:04;;;;;;;16.80;16.10;;;32.20;82.00;;;;;;5011548;28;20541;-72
2021/08/21 10:00:33;;;;;;;19.27;18.07;;;32.90;79.00;;;;;;5011425;28;20454;-72
2021/08/21 10:03:00;;;;;;;18.13;17.03;;;32.30;79.90;;;;;;5011147;28;20453;-72
2021/08/21 10:05:27;;;;;;;17.70;16.70;;;32.10;81.20;;;;;;5011464;28;20460;-72
2021/08/21 10:07:59;;;;;;;18.40;17.60;;;32.30;81.10;;;;;;5011390;28;20492;-72
2021/08/21 10:10:32;;;;;;;16.70;15.83;;;32.40;79.30;;;;;;5011189;28;20458;-72
2021/08/21 10:13:07;;;;;;;17.57;16.70;;;32.40;80.20;;;;;;5011220;28;20466;-73
2021/08/21 10:15:37;;;;;;;16.77;16.07;;;32.30;81.00;;;;;;5010880;28;20823;-73
2021/08/21 10:18:04;;;;;;;17.77;16.97;;;32.90;79.10;;;;;;5010983;28;20917;-73
2021/08/21 10:20:31;;;;;;;18.03;17.17;;;34.30;75.30;;;;;;5011050;28;20457;-73
2021/08/21 10:23:07;;;;;;;16.70;16.00;;;33.70;75.60;;;;;;5011131;28;20461;-73
2021/08/21 10:25:33;;;;;;;18.33;17.30;;;33.90;75.80;;;;;;5011060;28;20951;-73
2021/08/21 10:28:03;;;;;;;18.53;17.63;;;33.40;76.20;;;;;;5010371;28;20870;-73
2021/08/21 10:30:41;;;;;;;18.57;17.57;;;33.70;75.60;;;;;;5011018;28;20453;-73
2021/08/21 10:33:08;;;;;;;19.07;18.07;;;35.10;72.10;;;;;;5010953;28;20536;-73
2021/08/21 10:35:47;;;;;;;19.00;18.10;;;35.00;70.70;;;;;;5010629;28;20461;-73
2021/08/21 10:38:39;;;;;;;17.30;16.43;;;34.50;72.60;;;;;;5010894;28;20805;-73
2021/08/21 10:41:37;;;;;;;17.83;17.00;;;35.20;70.00;;;;;;5010802;28;20541;-73
2021/08/21 10:44:04;;;;;;;18.77;17.87;;;34.70;70.90;;;;;;5010698;28;20450;-72
2021/08/21 10:46:50;;;;;;;18.23;17.13;;;35.00;70.20;;;;;;5010627;28;20490;-72
2021/08/21 10:49:17;;;;;;;18.10;17.30;;;35.00;69.60;;;;;;5010334;28;20485;-73
2021/08/21 10:51:46;;;;;;;19.13;18.10;;;35.90;68.60;;;;;;5010780;28;20512;-72
2021/08/21 10:54:47;;;;;;;18.93;18.03;;;36.00;66.50;;;;;;5010780;28;20460;-73
2021/08/21 10:57:29;;;;;;;18.57;17.63;;;34.60;70.10;;;;;;5010612;28;20445;-72
2021/08/21 10:59:56;;;;;;;18.73;17.60;;;35.10;69.50;;;;;;5010657;28;20487;-73
2021/08/21 11:02:42;;;;;;;18.00;17.20;;;35.80;67.20;;;;;;5010582;28;20468;-73
2021/08/21 11:05:47;;;;;;;18.83;17.93;;;36.20;65.90;;;;;;5011024;28;20864;-73
2021/08/21 11:08:14;;;;;;;19.77;18.83;;;37.80;62.70;;;;;;5010532;28;20500;-73
2021/08/21 11:10:42;;;;;;;16.70;16.00;;;38.40;59.50;;;;;;5010698;28;20453;-73
2021/08/21 11:13:11;;;;;;;19.67;18.87;;;38.30;59.70;;;;;;5010752;28;20454;-73
2021/08/21 11:15:38;;;;;;;20.40;19.43;;;38.10;58.30;;;;;;5010741;28;20524;-75
2021/08/21 11:18:20;;;;;;;19.80;18.87;;;37.10;60.20;;;;;;4975941;28;20464;-73
2021/08/21 11:20:47;;;;;;;18.80;17.90;;;37.80;59.40;;;;;;4971654;28;20459;-74
2021/08/21 11:23:20;;;;;;;17.93;17.00;;;38.40;58.00;;;;;;4971680;28;20510;-73
2021/08/21 11:25:48;;;;;;;18.80;18.00;;;37.70;59.30;;;;;;4972018;28;20534;-71
2021/08/21 11:28:21;;;;;;;18.23;17.33;;;37.70;59.00;;;;;;4984610;28;20486;-74
2021/08/21 11:31:10;;;;;;;18.77;17.77;;;38.40;57.70;;;;;;4971459;28;20459;-74
2021/08/21 11:33:38;;;;;;;17.60;16.40;;;38.60;56.40;;;;;;4983811;28;20469;-74
2021/08/21 11:36:06;;;;;;;18.87;18.00;;;38.70;56.80;;;;;;4975580;28;20970;-74
2021/08/21 11:38:35;;;;;;;18.57;17.70;;;37.20;57.90;;;;;;4974720;28;20797;-74
2021/08/21 11:41:10;;;;;;;17.77;16.90;;;36.60;59.10;;;;;;4974717;28;20454;-73
2021/08/21 11:43:40;;;;;;;18.03;17.17;;;36.90;59.00;;;;;;4974525;28;20462;-73
2021/08/21 11:46:07;;;;;;;18.23;17.13;;;36.80;59.40;;;;;;4974667;28;20809;-73
2021/08/21 11:48:35;;;;;;;19.00;18.10;;;37.00;59.00;;;;;;4974323;28;20718;-74
2021/08/21 11:51:04;;;;;;;18.20;17.40;;;38.20;56.70;;;;;;4974643;28;20829;-73
2021/08/21 11:53:32;;;;;;;19.60;18.70;;;38.90;56.20;;;;;;4974467;28;20451;-74
2021/08/21 11:56:01;;;;;;;19.70;18.80;;;39.30;54.50;;;;;;4974865;28;20542;-73
2021/08/21 11:58:30;;;;;;;18.80;17.90;;;39.60;55.00;;;;;;4974372;28;20447;-73
2021/08/21 12:01:03;;;;;;;18.23;17.23;;;40.00;53.70;;;;;;4974553;28;20451;-73
2021/08/21 12:03:35;;;;;;;20.23;19.27;;;40.30;52.80;;;;;;4974364;28;20455;-73
2021/08/21 12:06:02;;;;;;;19.30;18.40;;;40.40;50.80;;;;;;4974039;28;20615;-73
2021/08/21 12:08:29;;;;;;;18.57;17.87;;;40.20;52.00;;;;;;4974202;28;20493;-74
2021/08/21 12:10:58;;;;;;;18.63;17.83;;;40.40;51.90;;;;;;4974430;28;20953;-73
2021/08/21 12:13:28;;;;;;;18.73;17.93;;;40.70;50.50;;;;;;4974442;28;20458;-73
2021/08/21 12:15:56;;;;;;;18.33;17.30;;;38.00;53.90;;;;;;4974309;28;20808;-73
2021/08/21 12:18:26;;;;;;;19.43;18.53;;;36.70;55.90;;;;;;4974189;28;20451;-73
2021/08/21 12:20:54;;;;;;;18.00;17.27;;;36.50;56.40;;;;;;4974092;28;20945;-74
2021/08/21 12:23:21;;;;;;;19.80;18.83;;;37.50;55.60;;;;;;4974062;28;20455;-74
2021/08/21 12:25:51;;;;;;;17.40;16.70;;;38.30;54.60;;;;;;4973831;28;20457;-74
2021/08/21 12:28:20;;;;;;;18.50;17.70;;;38.80;52.60;;;;;;4974015;28;20487;-73
2021/08/21 12:31:00;;;;;;;17.87;17.13;;;39.20;52.30;;;;;;4973711;28;20501;-73
2021/08/21 12:33:28;;;;;;;19.80;18.90;;;38.90;52.20;;;;;;4975707;28;20964;-75
2021/08/21 12:35:56;;;;;;;18.70;17.90;;;37.90;52.70;;;;;;4982484;28;20455;-73
2021/08/21 12:38:22;;;;;;;18.77;17.97;;;36.90;54.40;;;;;;4973683;28;20448;-73
2021/08/21 12:41:06;;;;;;;18.37;17.57;;;37.00;54.90;;;;;;4973540;28;20463;-74
2021/08/21 12:43:33;;;;;;;18.77;17.87;;;37.90;53.60;;;;;;4973316;28;20456;-74
2021/08/21 12:46:01;;;;;;;18.80;18.07;;;37.90;53.00;;;;;;4973272;28;20474;-74
2021/08/21 12:48:29;;;;;;;18.20;17.40;;;39.00;52.00;;;;;;4972661;28;21040;-72
2021/08/21 12:50:55;;;;;;;18.67;17.77;;;39.10;50.30;;;;;;4973335;28;20483;-72
2021/08/21 12:53:24;;;;;;;17.83;17.03;;;37.80;52.60;;;;;;4973490;28;20452;-72
2021/08/21 12:56:09;;;;;;;19.17;18.37;;;37.30;53.40;;;;;;4973497;28;20557;-73
2021/08/21 12:58:36;;;;;;;17.70;17.00;;;36.40;55.30;;;;;;4973442;28;20480;-73
2021/08/21 13:01:08;;;;;;;17.63;16.93;;;35.60;55.10;;;;;;4973133;28;20934;-73
2021/08/21 13:03:35;;;;;;;17.77;16.90;;;35.50;56.00;;;;;;4973213;28;20452;-73
2021/08/21 13:06:03;;;;;;;17.20;16.40;;;36.40;54.00;;;;;;4972994;28;20447;-74
2021/08/21 13:08:35;;;;;;;15.90;15.30;;;36.00;52.50;;;;;;4973026;28;20498;-74
2021/08/21 13:11:02;;;;;;;16.87;16.07;;;35.60;53.50;;;;;;4973052;28;20452;-74
2021/08/21 13:13:29;;;;;;;16.10;15.50;;;36.50;52.70;;;;;;4973087;28;20985;-74
2021/08/21 13:16:02;;;;;;;16.83;16.13;;;36.90;51.30;;;;;;4973372;28;20454;-73
2021/08/21 13:18:31;;;;;;;18.17;17.13;;;37.10;51.50;;;;;;4972839;28;20444;-74
2021/08/21 13:20:58;;;;;;;19.23;18.27;;;37.40;50.80;;;;;;4973358;28;20872;-74
2021/08/21 13:23:24;;;;;;;17.83;17.13;;;36.50;52.60;;;;;;4973130;28;20498;-73
2021/08/21 13:25:51;;;;;;;17.40;16.70;;;36.10;52.60;;;;;;4973000;28;20452;-74
2021/08/21 13:28:19;;;;;;;17.30;16.60;;;35.90;53.80;;;;;;4972557;28;20703;-74
2021/08/21 13:30:45;;;;;;;18.63;17.83;;;36.50;52.20;;;;;;4972902;28;20460;-73
2021/08/21 13:33:12;;;;;;;17.30;16.60;;;35.90;53.20;;;;;;4972745;28;20466;-74
2021/08/21 13:35:40;;;;;;;16.80;16.10;;;35.90;53.10;;;;;;4979634;28;20956;-71
2021/08/21 13:38:07;;;;;;;16.50;15.57;;;36.20;53.10;;;;;;4976099;28;20455;-72
2021/08/21 13:40:33;;;;;;;16.10;15.40;;;36.20;52.70;;;;;;4972617;28;21184;-73
2021/08/21 13:43:00;;;;;;;16.63;15.83;;;36.30;52.20;;;;;;4972334;28;20452;-72
2021/08/21 13:45:27;;;;;;;19.30;18.43;;;35.80;53.30;;;;;;4972625;28;20455;-71
2021/08/21 13:47:54;;;;;;;17.20;16.33;;;35.20;54.30;;;;;;4972609;28;20491;-71
2021/08/21 13:50:20;;;;;;;16.80;16.03;;;35.30;54.60;;;;;;4971794;28;20484;-72
2021/08/21 13:52:48;;;;;;;16.90;16.20;;;35.40;54.10;;;;;;4972579;28;20463;-72
2021/08/21 13:55:15;;;;;;;16.70;15.90;;;36.20;52.50;;;;;;4971966;28;20821;-72
2021/08/21 13:57:42;;;;;;;16.97;16.17;;;36.40;52.20;;;;;;4972466;28;20832;-73
2021/08/21 14:00:10;;;;;;;16.83;15.83;;;36.10;53.30;;;;;;4972449;28;20455;-72
2021/08/21 14:02:38;;;;;;;17.67;16.77;;;35.90;52.40;;;;;;4971992;28;20451;-72
2021/08/21 14:05:06;;;;;;;17.43;16.40;;;35.70;53.40;;;;;;4971977;28;20455;-72
2021/08/21 14:07:33;;;;;;;19.10;18.10;;;36.20;53.20;;;;;;4971707;28;20502;-73
2021/08/21 14:10:02;;;;;;;16.13;15.40;;;36.80;52.10;;;;;;4972053;28;20460;-72
2021/08/21 14:12:29;;;;;;;17.20;16.50;;;37.60;50.80;;;;;;4971918;28;20459;-72
2021/08/21 14:14:55;;;;;;;17.83;17.00;;;37.90;50.50;;;;;;4972316;28;20447;-72
2021/08/21 14:17:22;;;;;;;17.10;16.40;;;38.00;49.90;;;;;;4971986;28;20466;-72
2021/08/21 14:19:49;;;;;;;17.73;16.93;;;37.10;51.10;;;;;;4971953;28;20892;-72
2021/08/21 14:22:15;;;;;;;17.17;16.47;;;36.60;51.20;;;;;;4971641;28;20455;-72
2021/08/21 14:24:42;;;;;;;17.73;16.87;;;36.90;50.40;;;;;;4972047;28;20458;-73
2021/08/21 14:27:10;;;;;;;16.87;15.97;;;37.30;50.50;;;;;;4971879;28;20968;-73
2021/08/21 14:29:37;;;;;;;17.47;16.50;;;37.30;49.80;;;;;;4971761;28;20451;-73
2021/08/21 14:32:04;;;;;;;17.43;16.53;;;36.70;50.90;;;;;;4971728;28;20455;-72
2021/08/21 14:34:33;;;;;;;16.93;16.23;;;36.40;51.80;;;;;;4971629;28;20451;-73
2021/08/21 14:37:00;;;;;;;18.00;17.20;;;35.50;52.60;;;;;;4971490;28;20451;-72
2021/08/21 14:39:26;;;;;;;17.43;16.53;;;34.90;53.30;;;;;;4971785;28;20443;-73
2021/08/21 14:41:53;;;;;;;17.37;16.47;;;34.70;53.70;;;;;;4971802;28;20474;-72
2021/08/21 14:44:21;;;;;;;16.80;16.00;;;34.70;53.50;;;;;;4971486;28;20456;-72
2021/08/21 14:46:48;;;;;;;17.87;17.10;;;34.20;54.50;;;;;;4971366;28;20827;-73
2021/08/21 14:49:14;;;;;;;19.50;18.70;;;34.30;54.80;;;;;;4971140;28;20491;-72
2021/08/21 14:51:42;;;;;;;21.87;20.57;;;34.30;55.90;;;;;;4971579;28;20964;-73
2021/08/21 14:54:09;;;;;;;17.17;16.40;;;33.90;56.30;;;;;;4971386;28;20455;-71
2021/08/21 14:56:36;;;;;;;17.67;16.70;;;33.30;57.00;;;;;;4971460;28;20463;-71
2021/08/21 14:59:02;;;;;;;17.87;17.07;;;32.80;57.80;;;;;;4971660;28;20462;-70
2021/08/21 15:01:30;;;;;;;17.13;16.33;;;33.00;58.70;;;;;;4972754;28;20474;-70
2021/08/21 15:04:02;;;;;;;16.13;15.43;;;32.90;59.20;;;;;;4975331;28;20510;-71
2021/08/21 15:06:28;;;;;;;17.37;16.57;;;32.70;60.00;;;;;;4975126;28;20498;-71
2021/08/21 15:08:55;;;;;;;17.40;16.53;;;32.60;60.60;;;;;;4975345;28;20491;-71
2021/08/21 15:11:22;;;;;;;17.83;17.03;;;32.40;60.00;;;;;;4975042;28;20498;-71
2021/08/21 15:13:48;;;;;;;16.97;16.17;;;32.20;61.30;;;;;;4974991;28;20467;-70
2021/08/21 15:16:16;;;;;;;18.40;17.50;;;32.10;61.40;;;;;;4974854;28;20452;-71
2021/08/21 15:18:45;;;;;;;17.73;17.00;;;32.00;61.50;;;;;;4974998;28;20454;-72
2021/08/21 15:21:12;;;;;;;17.80;16.90;;;31.80;61.80;;;;;;4974844;28;20455;-71
2021/08/21 15:23:39;;;;;;;17.50;16.70;;;31.60;62.80;;;;;;4975082;28;20455;-71
2021/08/21 15:26:06;;;;;;;17.47;16.67;;;31.40;63.40;;;;;;4974608;28;20487;-71
2021/08/21 15:28:33;;;;;;;17.50;16.43;;;31.10;64.50;;;;;;4974630;28;20582;-70
2021/08/21 15:31:02;;;;;;;16.60;15.90;;;30.90;65.00;;;;;;4974493;28;20467;-71
2021/08/21 15:33:29;;;;;;;17.17;16.37;;;30.80;65.70;;;;;;4974288;28;20806;-71
2021/08/21 15:35:57;;;;;;;17.90;17.00;;;30.90;65.60;;;;;;4974689;28;20463;-71
2021/08/21 15:38:24;;;;;;;18.23;16.83;;;30.90;65.30;;;;;;4974707;28;20448;-71
2021/08/21 15:40:52;;;;;;;16.20;15.23;;;30.80;66.30;;;;;;4974557;28;20451;-71
2021/08/21 15:43:19;;;;;;;17.47;16.67;;;30.90;66.50;;;;;;4974530;28;20455;-70
2021/08/21 15:45:47;;;;;;;17.57;16.77;;;30.80;67.10;;;;;;4974191;28;20819;-70
2021/08/21 15:48:15;;;;;;;18.33;17.43;;;30.70;67.00;;;;;;4974145;28;20550;-70
2021/08/21 15:50:42;;;;;;;17.73;16.83;;;30.60;68.40;;;;;;4974026;28;20479;-71
2021/08/21 15:53:10;;;;;;;18.00;17.10;;;30.50;68.80;;;;;;4974086;28;20470;-71
2021/08/21 15:55:36;;;;;;;18.20;17.17;;;30.60;69.00;;;;;;4974331;28;20498;-71
2021/08/21 15:58:03;;;;;;;18.27;17.40;;;30.50;69.30;;;;;;4974272;28;20513;-70
2021/08/21 16:00:31;;;;;;;17.53;16.73;;;30.50;69.50;;;;;;4974105;28;20455;-70
2021/08/21 16:02:57;;;;;;;17.30;16.40;;;30.50;69.70;;;;;;4974291;28;20455;-71
2021/08/21 16:05:25;;;;;;;17.87;16.83;;;30.40;70.60;;;;;;4974230;28;20865;-71
2021/08/21 16:07:52;;;;;;;17.30;16.60;;;30.30;71.10;;;;;;4974036;28;20475;-71
2021/08/21 16:10:20;;;;;;;17.23;16.43;;;30.10;71.30;;;;;;4974136;28;20467;-71
2021/08/21 16:12:46;;;;;;;17.40;16.60;;;30.10;71.70;;;;;;4973357;28;20456;-71
2021/08/21 16:15:14;;;;;;;16.50;15.70;;;30.00;72.10;;;;;;4973728;28;20478;-71
2021/08/21 16:17:41;;;;;;;17.30;16.20;;;29.90;71.70;;;;;;4973755;28;20483;-71
2021/08/21 16:20:09;;;;;;;16.63;15.93;;;29.90;72.00;;;;;;4974058;28;20961;-71
2021/08/21 16:22:37;;;;;;;18.27;17.37;;;29.80;72.00;;;;;;4973664;28;20797;-71
2021/08/21 16:25:04;;;;;;;17.20;16.30;;;29.80;73.00;;;;;;4973786;28;20462;-71
2021/08/21 16:27:33;;;;;;;18.10;17.10;;;29.70;73.10;;;;;;4973642;28;20443;-71
2021/08/21 16:30:00;;;;;;;17.50;16.50;;;29.60;73.20;;;;;;4973557;28;20491;-71
2021/08/21 16:32:26;;;;;;;17.00;16.20;;;29.50;73.70;;;;;;4973918;28;20462;-74
2021/08/21 16:34:53;;;;;;;16.30;15.50;;;29.50;74.70;;;;;;4973802;28;20996;-71
2021/08/21 16:37:20;;;;;;;18.07;16.97;;;29.40;74.80;;;;;;4973523;28;20463;-71
2021/08/21 16:39:46;;;;;;;16.83;15.93;;;29.40;75.50;;;;;;4973435;28;20459;-70
2021/08/21 16:42:13;;;;;;;17.60;16.70;;;29.30;76.30;;;;;;4973829;28;20452;-71
2021/08/21 16:44:42;;;;;;;17.60;16.57;;;29.10;77.30;;;;;;4973681;28;20526;-71
2021/08/21 16:47:08;;;;;;;16.40;15.40;;;29.00;77.70;;;;;;4973308;28;20869;-71
2021/08/21 16:49:35;;;;;;;16.10;15.30;;;28.90;78.20;;;;;;4972958;28;20500;-70
2021/08/21 16:52:03;;;;;;;16.93;16.13;;;28.90;78.70;;;;;;4973295;28;21013;-71
2021/08/21 16:54:29;;;;;;;17.33;16.33;;;28.70;79.50;;;;;;4973378;28;20451;-71
2021/08/21 16:56:56;;;;;;;18.50;17.60;;;28.70;79.90;;;;;;4973422;28;20468;-71
2021/08/21 16:59:23;;;;;;;16.50;15.60;;;28.60;80.80;;;;;;4973241;28;20668;-70
2021/08/21 17:01:51;;;;;;;17.67;16.77;;;28.40;81.70;;;;;;4973111;28;20458;-70
2021/08/21 17:04:18;;;;;;;17.20;16.00;;;28.50;82.80;;;;;;4973130;28;20463;-71
2021/08/21 17:06:44;;;;;;;16.80;15.90;;;28.40;83.20;;;;;;4973261;28;20462;-70
2021/08/21 17:09:11;;;;;;;15.50;14.60;;;28.40;83.60;;;;;;4972861;28;20495;-71
2021/08/21 17:11:38;;;;;;;15.17;14.43;;;28.40;83.90;;;;;;4973186;28;20447;-70
2021/08/21 17:14:04;;;;;;;15.63;14.83;;;28.20;84.50;;;;;;4972867;28;20460;-70
2021/08/21 17:16:31;;;;;;;16.37;15.53;;;28.10;84.90;;;;;;4972522;28;20459;-70
2021/08/21 17:18:59;;;;;;;15.70;14.80;;;28.10;85.40;;;;;;4972806;28;20475;-70
2021/08/21 17:21:26;;;;;;;14.13;13.50;;;28.00;85.60;;;;;;4973281;28;20451;-70
2021/08/21 17:23:53;;;;;;;15.00;14.30;;;28.00;85.90;;;;;;4971851;28;20460;-71